createdAt,value
2019-05-29T00:00:48.831Z,65.30
2019-05-29T00:03:19.166Z,64.70
2019-05-29T00:05:49.422Z,64.50
2019-05-29T00:08:19.722Z,64.70
2019-05-29T00:10:51.074Z,64.70
2019-05-29T00:13:22.372Z,64.70
2019-05-29T00:15:52.630Z,64.60
2019-05-29T00:18:24.951Z,64.80
2019-05-29T00:20:55.265Z,64.90
2019-05-29T00:23:26.041Z,64.60
2019-05-29T00:25:56.468Z,64.80
2019-05-29T00:28:27.308Z,64.80
2019-05-29T00:30:57.616Z,64.90
2019-05-29T00:33:28.006Z,64.90
2019-05-29T00:35:58.303Z,65.00
2019-05-29T00:38:28.628Z,65.10
2019-05-29T00:40:59.979Z,65.10
2019-05-29T00:43:30.299Z,65.30
2019-05-29T00:46:01.917Z,65.20
2019-05-29T00:48:32.239Z,65.20
2019-05-29T00:51:02.517Z,65.60
2019-05-29T00:53:32.779Z,65.30
2019-05-29T00:56:03.481Z,65.20
2019-05-29T00:58:33.775Z,65.70
2019-05-29T01:01:04.148Z,65.50
2019-05-29T01:03:36.336Z,65.50
2019-05-29T01:06:06.428Z,65.40
2019-05-29T01:08:37.689Z,65.50
2019-05-29T01:11:07.948Z,65.70
2019-05-29T01:13:38.540Z,65.60
2019-05-29T01:16:08.844Z,65.90
2019-05-29T01:18:39.014Z,65.60
2019-05-29T01:21:09.312Z,65.70
2019-05-29T01:23:39.589Z,65.70
2019-05-29T01:26:12.429Z,65.70
2019-05-29T01:28:42.813Z,65.90
2019-05-29T01:31:13.621Z,65.80
2019-05-29T01:33:44.336Z,66.00
2019-05-29T01:36:15.711Z,65.80
2019-05-29T01:38:48.261Z,66.10
2019-05-29T01:41:17.750Z,66.80
2019-05-29T01:43:47.845Z,65.80
2019-05-29T01:46:19.497Z,65.80
2019-05-29T01:48:50.088Z,66.60
2019-05-29T01:51:21.798Z,65.90
2019-05-29T01:53:52.249Z,65.70
2019-05-29T01:56:23.854Z,65.70
2019-05-29T01:58:54.348Z,65.60
2019-05-29T02:01:24.653Z,65.70
2019-05-29T02:03:54.983Z,65.60
2019-05-29T02:06:25.254Z,65.80
2019-05-29T02:08:56.597Z,65.70
2019-05-29T02:11:27.550Z,66.00
2019-05-29T02:13:58.014Z,66.00
2019-05-29T02:16:28.332Z,65.90
2019-05-29T02:18:58.955Z,66.00
2019-05-29T02:21:30.345Z,66.30
2019-05-29T02:24:00.534Z,66.20
2019-05-29T02:26:33.926Z,66.30
2019-05-29T02:32:46.391Z,66.20
2019-05-29T02:35:17.932Z,66.10
2019-05-29T02:37:49.373Z,66.00
2019-05-29T02:40:21.306Z,66.10
2019-05-29T02:42:51.600Z,66.20
2019-05-29T02:45:26.256Z,66.40
2019-05-29T02:47:56.300Z,66.20
2019-05-29T02:50:28.746Z,66.50
2019-05-29T02:52:58.470Z,66.50
2019-05-29T02:55:30.939Z,66.70
2019-05-29T02:58:01.404Z,66.40
2019-05-29T03:00:55.755Z,66.40
2019-05-29T03:03:29.534Z,66.40
2019-05-29T03:05:58.590Z,66.40
2019-05-29T03:11:33.821Z,66.60
2019-05-29T03:14:05.843Z,66.70
2019-05-29T03:16:36.129Z,66.60
2019-05-29T03:20:01.005Z,66.70
2019-05-29T03:22:33.154Z,66.90
2019-05-29T03:25:03.442Z,66.70
2019-05-29T03:31:20.185Z,66.70
2019-05-29T03:37:32.443Z,66.70
2019-05-29T03:43:49.884Z,66.90
2019-05-29T03:53:43.027Z,67.00
2019-05-29T03:59:50.538Z,66.90
2019-05-29T04:06:01.870Z,67.40
2019-05-29T04:15:56.919Z,80.20
2019-05-29T04:22:15.356Z,72.70
2019-05-29T04:28:34.901Z,73.20
2019-05-29T04:34:46.915Z,75.10
2019-05-29T04:38:19.639Z,76.40
2019-05-29T04:40:49.962Z,77.80
2019-05-29T04:49:37.729Z,67.10
2019-05-29T04:52:22.251Z,66.90
2019-05-29T04:54:52.537Z,66.80
2019-05-29T04:57:22.797Z,66.60
2019-05-29T05:03:35.346Z,66.60
2019-05-29T05:09:55.948Z,66.70
2019-05-29T05:16:03.858Z,67.00
2019-05-29T05:18:34.095Z,67.00
2019-05-29T05:24:49.871Z,67.30
2019-05-29T05:31:06.509Z,67.40
2019-05-29T05:37:02.694Z,67.50
2019-05-29T05:39:33.028Z,67.40
2019-05-29T05:49:27.094Z,67.60
2019-05-29T05:55:34.056Z,67.80
2019-05-29T05:58:38.318Z,68.60
2019-05-29T06:01:08.628Z,67.90
2019-05-29T06:03:40.614Z,68.00
2019-05-29T06:09:53.135Z,67.90
2019-05-29T06:16:19.030Z,67.70
2019-05-29T06:18:49.216Z,67.90
2019-05-29T06:21:20.538Z,67.80
2019-05-29T06:23:50.808Z,68.70
2019-05-29T06:26:25.397Z,67.80
2019-05-29T06:28:55.664Z,67.80
2019-05-29T06:31:27.262Z,67.50
2019-05-29T06:33:57.787Z,67.50
2019-05-29T06:36:29.084Z,67.30
2019-05-29T06:38:59.357Z,67.10
2019-05-29T06:41:32.138Z,67.00
2019-05-29T06:44:02.450Z,67.10
2019-05-29T06:46:34.229Z,67.40
2019-05-29T06:49:05.075Z,67.00
2019-05-29T06:51:37.104Z,65.80
2019-05-29T06:54:07.466Z,66.70
2019-05-29T06:56:39.786Z,66.40
2019-05-29T06:59:09.207Z,66.20
2019-05-29T07:01:39.547Z,66.00
2019-05-29T07:04:12.497Z,65.90
2019-05-29T07:06:44.811Z,65.10
2019-05-29T07:09:15.279Z,65.20
2019-05-29T07:11:45.581Z,64.80
2019-05-29T07:14:16.802Z,64.30
2019-05-29T07:16:55.513Z,64.50
2019-05-29T07:19:26.565Z,64.80
2019-05-29T07:21:52.674Z,65.50
2019-05-29T07:24:23.774Z,64.20
2019-05-29T07:26:53.998Z,63.50
2019-05-29T07:29:25.868Z,63.90
2019-05-29T07:31:56.159Z,63.50
2019-05-29T07:34:26.419Z,62.90
2019-05-29T07:36:56.647Z,62.70
2019-05-29T07:39:27.018Z,62.60
2019-05-29T07:41:57.551Z,62.40
2019-05-29T07:44:28.950Z,62.70
2019-05-29T07:47:00.841Z,62.50
2019-05-29T07:49:39.184Z,62.20
2019-05-29T07:52:03.707Z,61.20
2019-05-29T07:54:33.915Z,63.40
2019-05-29T07:57:04.100Z,62.50
2019-05-29T07:59:39.069Z,62.20
2019-05-29T08:02:09.572Z,63.70
2019-05-29T08:04:40.946Z,62.90
2019-05-29T08:07:11.346Z,61.90
2019-05-29T08:09:43.605Z,63.00
2019-05-29T08:12:13.062Z,62.50
2019-05-29T08:14:44.162Z,61.90
2019-05-29T08:17:14.736Z,62.50
2019-05-29T08:20:00.608Z,61.90
2019-05-29T08:22:33.366Z,62.70
2019-05-29T08:24:49.497Z,63.00
2019-05-29T08:27:20.551Z,62.70
2019-05-29T08:29:51.206Z,61.40
2019-05-29T08:32:22.533Z,61.50
2019-05-29T08:34:52.754Z,61.10
2019-05-29T08:37:23.003Z,60.40
2019-05-29T08:39:53.290Z,60.00
2019-05-29T08:42:24.721Z,60.00
2019-05-29T08:44:55.014Z,60.00
2019-05-29T08:47:25.314Z,60.70
2019-05-29T08:50:14.494Z,60.50
2019-05-29T08:52:27.459Z,59.80
2019-05-29T08:54:58.722Z,59.60
2019-05-29T08:57:29.002Z,59.20
2019-05-29T08:59:59.330Z,59.20
2019-05-29T09:02:29.605Z,59.50
2019-05-29T09:04:59.783Z,57.60
2019-05-29T09:07:30.095Z,58.80
2019-05-29T09:10:00.418Z,59.20
2019-05-29T09:12:30.738Z,60.60
2019-05-29T09:15:02.291Z,60.90
2019-05-29T09:17:34.587Z,61.00
2019-05-29T09:20:07.479Z,61.90
2019-05-29T09:22:37.781Z,60.60
2019-05-29T09:25:08.218Z,57.40
2019-05-29T09:27:38.540Z,56.90
2019-05-29T09:30:09.491Z,58.30
2019-05-29T09:32:50.335Z,60.60
2019-05-29T09:35:11.894Z,60.00
2019-05-29T09:37:42.215Z,59.30
2019-05-29T09:40:16.878Z,61.00
2019-05-29T09:42:49.382Z,62.60
2019-05-29T09:45:19.809Z,56.00
2019-05-29T09:47:49.992Z,56.40
2019-05-29T09:50:23.163Z,56.70
2019-05-29T09:52:53.226Z,56.20
2019-05-29T09:55:23.402Z,56.10
2019-05-29T09:58:07.168Z,57.20
2019-05-29T10:00:37.454Z,56.60
2019-05-29T10:03:07.805Z,56.80
2019-05-29T10:05:38.160Z,56.40
2019-05-29T10:08:09.490Z,55.00
2019-05-29T10:10:39.715Z,53.70
2019-05-29T10:13:09.989Z,54.80
2019-05-29T10:15:40.283Z,52.90
2019-05-29T10:18:30.596Z,54.50
2019-05-29T10:20:47.829Z,54.10
2019-05-29T10:23:20.100Z,54.50
2019-05-29T10:26:04.596Z,54.90
2019-05-29T10:28:50.252Z,52.20
2019-05-29T10:31:07.859Z,53.90
2019-05-29T10:33:42.496Z,52.30
2019-05-29T10:36:12.898Z,52.70
2019-05-29T10:38:46.545Z,53.40
2019-05-29T10:41:17.878Z,52.60
2019-05-29T10:43:53.472Z,52.90
2019-05-29T10:46:23.762Z,51.90
2019-05-29T10:48:56.385Z,52.80
2019-05-29T10:51:30.845Z,52.30
2019-05-29T10:54:01.135Z,51.70
2019-05-29T10:56:34.644Z,50.80
2019-05-29T10:59:05.304Z,50.70
2019-05-29T11:01:45.017Z,48.50
2019-05-29T11:04:15.430Z,50.70
2019-05-29T11:06:48.046Z,50.50
2019-05-29T11:09:18.454Z,51.50
2019-05-29T11:11:55.227Z,49.10
2019-05-29T11:14:25.561Z,50.40
2019-05-29T11:17:03.895Z,50.40
2019-05-29T11:19:34.189Z,50.50
2019-05-29T11:22:24.788Z,50.70
2019-05-29T11:24:35.777Z,49.60
2019-05-29T11:27:11.542Z,49.40
2019-05-29T11:29:41.722Z,49.90
2019-05-29T11:32:21.448Z,50.00
2019-05-29T11:34:53.854Z,49.60
2019-05-29T11:37:32.539Z,49.70
2019-05-29T11:40:03.375Z,48.90
2019-05-29T11:42:33.877Z,49.30
2019-05-29T11:45:09.432Z,49.70
2019-05-29T11:47:41.554Z,49.40
2019-05-29T11:50:19.342Z,48.50
2019-05-29T11:52:44.477Z,49.00
2019-05-29T11:55:15.154Z,49.30
2019-05-29T11:57:46.337Z,49.00
2019-05-29T12:00:22.759Z,49.10
2019-05-29T12:02:53.937Z,47.80
2019-05-29T12:05:25.202Z,47.80
2019-05-29T12:10:25.901Z,47.10
2019-05-29T12:12:57.444Z,47.00
2019-05-29T12:15:28.895Z,47.40
2019-05-29T12:18:21.902Z,47.70
2019-05-29T12:20:34.281Z,45.60
2019-05-29T12:23:23.787Z,45.90
2019-05-29T12:25:36.487Z,46.80
2019-05-29T12:28:07.332Z,47.00
2019-05-29T12:30:55.272Z,47.40
2019-05-29T12:33:26.832Z,47.40
2019-05-29T12:35:57.169Z,47.00
2019-05-29T12:38:34.387Z,47.20
2019-05-29T12:43:46.078Z,45.00
2019-05-29T12:46:16.343Z,45.50
2019-05-29T12:48:53.555Z,43.40
2019-05-29T12:51:26.947Z,44.80
2019-05-29T12:53:58.324Z,44.70
2019-05-29T12:56:31.006Z,44.80
2019-05-29T12:59:02.844Z,45.20
2019-05-29T13:01:54.410Z,44.30
2019-05-29T13:04:24.904Z,43.40
2019-05-29T13:07:02.562Z,44.00
2019-05-29T13:09:32.958Z,41.70
2019-05-29T13:12:07.472Z,41.50
2019-05-29T13:14:37.766Z,42.00
2019-05-29T13:17:21.339Z,42.40
2019-05-29T13:19:51.681Z,42.40
2019-05-29T13:22:29.137Z,42.70
2019-05-29T13:24:59.693Z,43.40
2019-05-29T13:28:26.818Z,43.60
2019-05-29T13:30:57.703Z,43.90
2019-05-29T13:36:06.732Z,43.00
2019-05-29T13:38:44.176Z,44.10
2019-05-29T13:41:14.467Z,43.40
2019-05-29T13:43:44.822Z,44.30
2019-05-29T13:46:16.426Z,44.70
2019-05-29T13:51:16.848Z,44.60
2019-05-29T13:54:01.937Z,45.30
2019-05-29T13:56:19.080Z,45.60
2019-05-29T13:58:49.291Z,45.90
2019-05-29T14:01:19.950Z,46.10
2019-05-29T14:04:08.877Z,46.80
2019-05-29T14:06:39.181Z,52.30
2019-05-29T14:11:43.301Z,47.10
2019-05-29T14:16:45.546Z,48.20
2019-05-29T14:19:15.882Z,48.90
2019-05-29T14:21:49.161Z,48.70
2019-05-29T14:24:29.345Z,49.00
2019-05-29T14:27:01.405Z,49.10
2019-05-29T14:29:31.814Z,49.10
2019-05-29T14:32:07.361Z,49.30
2019-05-29T14:34:37.845Z,49.50
2019-05-29T14:37:09.698Z,49.40
2019-05-29T14:39:45.886Z,49.30
2019-05-29T14:44:56.875Z,48.80
2019-05-29T14:47:27.244Z,49.40
2019-05-29T14:50:00.035Z,49.50
2019-05-29T14:52:51.435Z,49.90
2019-05-29T14:55:32.585Z,49.90
2019-05-29T14:58:07.772Z,49.70
2019-05-29T15:00:43.320Z,49.80
2019-05-29T15:03:35.575Z,50.30
2019-05-29T15:06:14.004Z,50.20
2019-05-29T15:09:03.522Z,50.40
2019-05-29T15:11:42.000Z,50.20
2019-05-29T15:14:44.646Z,50.20
2019-05-29T15:20:20.034Z,50.50
2019-05-29T15:22:50.302Z,50.60
2019-05-29T15:25:24.223Z,50.40
2019-05-29T15:27:53.570Z,50.50
2019-05-29T15:30:28.409Z,50.40
2019-05-29T15:32:58.684Z,50.20
2019-05-29T15:35:29.133Z,50.20
2019-05-29T15:37:59.464Z,50.20
2019-05-29T15:40:33.578Z,50.10
2019-05-29T15:43:03.820Z,50.10
2019-05-29T15:45:36.124Z,50.70
2019-05-29T15:48:17.601Z,50.10
2019-05-29T15:50:49.025Z,50.30
2019-05-29T15:53:40.771Z,50.40
2019-05-29T15:56:22.792Z,50.50
2019-05-29T15:58:43.066Z,50.40
2019-05-29T16:01:33.048Z,50.30
2019-05-29T16:04:03.392Z,49.80
2019-05-29T16:06:36.039Z,50.10
2019-05-29T16:09:08.272Z,49.70
2019-05-29T16:14:12.914Z,49.10
2019-05-29T16:16:47.307Z,49.90
2019-05-29T16:19:18.360Z,49.90
2019-05-29T16:22:28.681Z,49.50
2019-05-29T16:24:58.958Z,49.40
2019-05-29T16:27:31.030Z,49.30
2019-05-29T16:30:27.874Z,49.20
2019-05-29T16:32:58.499Z,49.20
2019-05-29T16:36:03.505Z,49.10
2019-05-29T16:38:33.703Z,48.70
2019-05-29T16:41:05.361Z,48.80
2019-05-29T16:43:35.551Z,49.00
2019-05-29T16:46:05.896Z,49.30
2019-05-29T16:48:39.798Z,49.40
2019-05-29T16:51:10.076Z,49.60
2019-05-29T16:53:45.199Z,49.70
2019-05-29T16:56:16.788Z,49.90
2019-05-29T16:58:47.196Z,50.00
2019-05-29T17:03:49.674Z,49.60
2019-05-29T17:06:34.653Z,50.10
2019-05-29T17:09:08.625Z,50.20
2019-05-29T17:11:49.562Z,50.30
2019-05-29T17:14:20.831Z,50.30
2019-05-29T17:16:53.446Z,50.40
2019-05-29T17:19:25.049Z,50.40
2019-05-29T17:21:56.858Z,50.80
2019-05-29T17:24:27.178Z,50.60
2019-05-29T17:26:57.531Z,50.60
2019-05-29T17:29:27.846Z,50.80
2019-05-29T17:32:01.216Z,51.00
2019-05-29T17:34:31.624Z,50.90
2019-05-29T17:37:03.438Z,51.10
2019-05-29T17:39:33.699Z,51.30
2019-05-29T17:42:04.122Z,51.20
2019-05-29T17:44:34.394Z,51.60
2019-05-29T17:47:04.758Z,51.50
2019-05-29T17:49:35.025Z,51.70
2019-05-29T17:52:08.515Z,52.10
2019-05-29T17:54:38.921Z,64.60
2019-05-29T17:57:09.607Z,51.90
2019-05-29T17:59:44.073Z,52.10
2019-05-29T18:02:14.334Z,52.10
2019-05-29T18:04:55.030Z,52.40
2019-05-29T18:07:26.627Z,52.60
2019-05-29T18:09:57.496Z,52.70
2019-05-29T18:12:38.335Z,52.70
2019-05-29T18:15:10.044Z,53.20
2019-05-29T18:18:08.150Z,55.70
2019-05-29T18:20:38.382Z,53.50
2019-05-29T18:23:28.182Z,53.10
2019-05-29T18:25:59.075Z,83.70
2019-05-29T18:31:00.727Z,53.60
2019-05-29T18:33:31.049Z,53.70
2019-05-29T18:36:01.354Z,54.50
2019-05-29T18:38:42.786Z,54.10
2019-05-29T18:41:14.542Z,54.40
2019-05-29T18:43:45.199Z,54.20
2019-05-29T18:47:09.854Z,54.70
2019-05-29T18:49:40.249Z,54.50
2019-05-29T18:52:10.569Z,54.50
2019-05-29T18:58:24.257Z,55.00
2019-05-29T19:00:54.586Z,54.80
2019-05-29T19:03:25.368Z,54.90
2019-05-29T19:09:34.693Z,55.00
2019-05-29T19:12:08.184Z,55.10
2019-05-29T19:14:38.405Z,55.30
2019-05-29T19:17:43.880Z,55.40
2019-05-29T19:20:15.162Z,55.40
2019-05-29T19:22:45.447Z,55.40
2019-05-29T19:25:39.967Z,55.60
2019-05-29T19:28:10.594Z,55.90
2019-05-29T19:30:40.907Z,55.70
2019-05-29T19:33:20.216Z,56.30
2019-05-29T19:35:50.660Z,55.90
2019-05-29T19:38:20.909Z,56.00
2019-05-29T19:41:16.835Z,56.10
2019-05-29T19:43:47.629Z,56.20
2019-05-29T19:46:28.578Z,56.40
2019-05-29T19:48:58.879Z,56.40
2019-05-29T19:51:29.236Z,56.40
2019-05-29T19:54:00.570Z,56.50
2019-05-29T19:56:31.737Z,56.90
2019-05-29T19:59:02.135Z,56.60
2019-05-29T20:01:40.248Z,56.70
2019-05-29T20:04:07.703Z,56.80
2019-05-29T20:06:44.969Z,56.80
2019-05-29T20:09:15.617Z,56.90
2019-05-29T20:11:45.891Z,56.90
2019-05-29T20:14:38.188Z,56.90
2019-05-29T20:17:08.818Z,57.00
2019-05-29T20:20:19.469Z,56.90
2019-05-29T20:22:49.766Z,57.00
2019-05-29T20:25:20.415Z,57.10
2019-05-29T20:28:45.897Z,56.90
2019-05-29T20:31:16.198Z,57.20
2019-05-29T20:33:46.482Z,57.10
2019-05-29T20:36:19.997Z,57.30
2019-05-29T20:38:50.267Z,57.50
2019-05-29T20:41:20.628Z,58.00
2019-05-29T20:43:52.978Z,57.50
2019-05-29T20:46:22.516Z,57.40
2019-05-29T20:49:22.362Z,57.80
2019-05-29T20:54:37.683Z,57.40
2019-05-29T21:00:47.175Z,57.90
2019-05-29T21:07:17.334Z,58.00
2019-05-29T21:09:47.666Z,58.40
2019-05-29T21:12:18.247Z,59.00
2019-05-29T21:18:35.786Z,58.70
2019-05-29T22:10:59.514Z,59.40
2019-05-29T22:13:30.047Z,59.50
2019-05-29T22:16:00.945Z,59.70
2019-05-29T22:18:31.354Z,59.70
2019-05-29T22:23:32.186Z,59.20
2019-05-29T22:26:02.517Z,60.00
2019-05-29T22:28:32.808Z,60.00
2019-05-29T22:31:04.177Z,60.10
2019-05-29T22:33:34.698Z,60.10
2019-05-29T22:36:05.292Z,60.30
2019-05-29T22:38:35.693Z,60.10
2019-05-29T22:41:05.900Z,60.40
2019-05-29T22:43:37.675Z,60.40
2019-05-29T22:46:08.315Z,60.30
2019-05-29T22:48:38.633Z,60.20
2019-05-29T22:51:08.975Z,60.40
2019-05-29T22:53:39.186Z,60.50
2019-05-29T22:56:11.448Z,60.40
2019-05-29T22:58:41.797Z,60.40
2019-05-29T23:01:12.400Z,60.30
2019-05-29T23:03:42.762Z,60.40
2019-05-29T23:06:13.009Z,60.60
2019-05-29T23:08:43.328Z,60.60
2019-05-29T23:11:13.651Z,60.90
2019-05-29T23:16:14.757Z,60.30
2019-05-29T23:18:45.018Z,61.20
2019-05-29T23:21:15.449Z,60.70
2019-05-29T23:23:46.032Z,60.90
2019-05-29T23:26:16.333Z,60.90
2019-05-29T23:28:46.879Z,61.10
2019-05-29T23:31:17.105Z,61.20
2019-05-29T23:33:47.326Z,61.30
2019-05-29T23:36:18.581Z,61.50
2019-05-29T23:38:48.847Z,61.30
2019-05-29T23:41:19.201Z,61.40
2019-05-29T23:43:49.478Z,61.40
2019-05-29T23:46:19.752Z,61.70
2019-05-29T23:48:50.070Z,61.70
2019-05-29T23:51:20.390Z,61.80
2019-05-29T23:53:50.681Z,61.70
2019-05-29T23:56:21.096Z,61.70
2019-05-29T23:58:51.361Z,61.70
